Time;durP1;ratioP1;P1;durP2;ratioP2;P2;SDS_P1;SDS_P2;PMS_P1;PMS_P2;Temp;Humidity;BMP_temperature;BMP_pressure;BME280_temperature;BME280_humidity;BME280_pressure;Samples;Min_cycle;Max_cycle;Signal;HPM_P1;HPM_P2
2022/08/13 00:02:10;;;;;;;1.80;1.00;;;;;;;21.76;nan;100506.38;5077560;28;20127;-63
2022/08/13 00:04:37;;;;;;;1.63;0.93;;;;;;;21.66;nan;100506.06;5082043;28;20563;-62
2022/08/13 00:07:08;;;;;;;1.35;1.00;;;;;;;21.57;nan;100502.88;5085132;28;20131;-63
2022/08/13 00:09:39;;;;;;;1.52;0.95;;;;;;;21.52;nan;100504.59;5082659;28;20090;-63
2022/08/13 00:14:52;;;;;;;2.78;1.15;;;;;;;21.38;nan;100506.56;5080328;28;19931;-63
2022/08/13 00:17:18;;;;;;;1.45;1.08;;;;;;;21.32;nan;100508.28;5077747;28;20036;-62
2022/08/13 00:19:48;;;;;;;1.95;1.00;;;;;;;21.29;nan;100498.00;5080997;28;20042;-62
2022/08/13 00:22:19;;;;;;;1.33;1.00;;;;;;;21.20;nan;100502.81;5082687;28;20174;-62
2022/08/13 00:24:45;;;;;;;;;;;;;;;21.13;nan;100496.69;5081222;28;20041;-63
2022/08/13 00:27:10;;;;;;;2.03;1.10;;;;;;;21.10;nan;100501.72;5079348;28;19923;-62
2022/08/13 00:29:37;;;;;;;2.83;1.10;;;;;;;21.10;nan;100507.09;5082029;28;20086;-62
2022/08/13 00:32:03;;;;;;;2.35;1.23;;;;;;;21.04;nan;100502.59;5079266;28;20037;-63
2022/08/13 00:34:28;;;;;;;1.92;1.20;;;;;;;20.96;nan;100501.81;5084077;28;20511;-63
2022/08/13 00:36:54;;;;;;;1.88;1.08;;;;;;;20.88;nan;100493.22;5083964;28;20036;-63
2022/08/13 00:39:19;;;;;;;1.50;1.00;;;;;;;20.82;nan;100499.47;5083683;28;20182;-63
2022/08/13 00:41:45;;;;;;;1.95;1.10;;;;;;;20.81;nan;100497.81;5087606;28;20078;-63
2022/08/13 00:44:16;;;;;;;1.50;1.10;;;;;;;20.78;nan;100499.09;5081863;28;20037;-63
2022/08/13 00:46:43;;;;;;;2.00;0.98;;;;;;;20.69;nan;100492.34;5085334;28;20040;-63
2022/08/13 00:49:11;;;;;;;1.85;1.23;;;;;;;20.66;nan;100495.47;5082501;28;20064;-63
2022/08/13 00:51:38;;;;;;;2.05;1.02;;;;;;;20.61;nan;100493.44;5082195;28;20043;-63
2022/08/13 00:54:07;;;;;;;2.63;1.10;;;;;;;20.58;nan;100494.69;5083267;28;20420;-63
2022/08/13 00:56:34;;;;;;;2.05;1.15;;;;;;;20.55;nan;100499.66;5079744;28;20067;-63
2022/08/13 00:59:12;;;;;;;4.25;1.08;;;;;;;20.53;nan;100493.69;5081311;28;20029;-62
2022/08/13 01:01:45;;;;;;;1.80;1.10;;;;;;;20.52;nan;100503.63;5084171;28;20039;-63
2022/08/13 01:04:11;;;;;;;2.65;1.10;;;;;;;20.47;nan;100495.34;5085675;28;20123;-65
2022/08/13 01:06:37;;;;;;;1.50;1.00;;;;;;;20.46;nan;100499.09;5089094;28;20618;-63
2022/08/13 01:09:04;;;;;;;1.48;0.95;;;;;;;20.42;nan;100502.44;5087780;28;20098;-63
2022/08/13 01:11:32;;;;;;;1.73;1.10;;;;;;;20.39;nan;100495.63;5085794;28;20044;-63
2022/08/13 01:14:01;;;;;;;1.20;0.88;;;;;;;20.36;nan;100498.75;5084318;28;20082;-63
2022/08/13 01:16:28;;;;;;;1.73;1.00;;;;;;;20.37;nan;100500.41;5079296;28;20035;-63
2022/08/13 01:18:53;;;;;;;1.30;1.00;;;;;;;20.35;nan;100507.84;5082576;28;20593;-63
2022/08/13 01:21:22;;;;;;;7.40;1.20;;;;;;;20.35;nan;100510.53;5082096;28;20094;-63
2022/08/13 01:23:50;;;;;;;1.92;1.20;;;;;;;20.29;nan;100506.03;5083214;28;20111;-63
2022/08/13 01:26:20;;;;;;;1.80;1.02;;;;;;;20.24;nan;100505.88;5081489;28;20036;-63
2022/08/13 01:28:48;;;;;;;4.03;1.30;;;;;;;20.18;nan;100501.34;5085196;28;20062;-63
2022/08/13 01:31:15;;;;;;;2.95;1.10;;;;;;;20.15;nan;100500.75;5081909;28;20322;-63
2022/08/13 01:33:45;;;;;;;1.20;1.00;;;;;;;20.16;nan;100509.59;5082641;28;20493;-63
2022/08/13 01:36:12;;;;;;;2.13;1.30;;;;;;;20.09;nan;100498.94;5080551;28;20028;-64
2022/08/13 01:38:39;;;;;;;1.50;1.15;;;;;;;20.07;nan;100506.38;5085218;28;20033;-63
2022/08/13 01:41:08;;;;;;;2.55;1.30;;;;;;;20.05;nan;100496.88;5083185;28;20034;-63
2022/08/13 01:43:35;;;;;;;1.83;1.10;;;;;;;20.04;nan;100492.53;5086294;28;20040;-63
2022/08/13 01:46:01;;;;;;;2.13;1.23;;;;;;;20.02;nan;100492.78;5081835;28;20127;-63
2022/08/13 01:51:21;;;;;;;2.75;1.30;;;;;;;19.92;nan;100495.91;5079941;28;20113;-63
2022/08/13 01:53:54;;;;;;;1.45;1.08;;;;;;;19.94;nan;100493.00;5076973;28;20416;-63
2022/08/13 01:56:23;;;;;;;1.50;1.08;;;;;;;19.84;nan;100495.34;5083964;28;20126;-63
2022/08/13 01:58:51;;;;;;;1.90;1.20;;;;;;;19.76;nan;100490.19;5085675;28;20303;-63
2022/08/13 02:01:17;;;;;;;1.05;0.90;;;;;;;19.68;nan;100496.63;5089501;28;20043;-63
2022/08/13 02:03:49;;;;;;;1.73;1.10;;;;;;;19.71;nan;100478.25;5089765;28;20161;-63
2022/08/13 02:06:21;;;;;;;1.92;1.10;;;;;;;19.71;nan;100483.63;5091963;28;20089;-63
2022/08/13 02:08:50;;;;;;;1.60;1.20;;;;;;;19.76;nan;100484.84;5082393;28;20531;-63
2022/08/13 02:11:16;;;;;;;2.50;1.20;;;;;;;19.79;nan;100495.16;5063404;28;20036;-63
2022/08/13 02:13:42;;;;;;;1.55;1.10;;;;;;;19.84;nan;100481.91;5084555;28;20039;-63
2022/08/13 02:16:07;;;;;;;1.77;1.13;;;;;;;19.83;nan;100488.31;5079932;28;20449;-63
2022/08/13 02:18:33;;;;;;;1.83;1.13;;;;;;;19.85;nan;100492.41;5081967;28;20149;-63
2022/08/13 02:21:01;;;;;;;1.95;1.10;;;;;;;19.84;nan;100487.28;5084397;28;20100;-63
2022/08/13 02:23:31;;;;;;;1.85;1.00;;;;;;;19.81;nan;100487.72;5085381;28;21419;-63
2022/08/13 02:25:58;;;;;;;1.67;1.10;;;;;;;19.79;nan;100489.78;5084297;28;20036;-63
2022/08/13 02:28:23;;;;;;;2.50;1.10;;;;;;;19.76;nan;100482.16;5082308;28;20047;-63
2022/08/13 02:30:52;;;;;;;1.48;1.10;;;;;;;19.81;nan;100490.41;5081518;28;20033;-63
2022/08/13 02:33:18;;;;;;;1.85;1.30;;;;;;;19.79;nan;100482.56;5082461;28;20044;-63
2022/08/13 02:35:44;;;;;;;2.80;1.00;;;;;;;19.75;nan;100493.94;5085814;28;20032;-63
2022/08/13 02:38:11;;;;;;;1.30;1.02;;;;;;;19.65;nan;100486.31;5078055;28;20036;-63
2022/08/13 02:43:25;;;;;;;2.47;1.17;;;;;;;19.43;nan;100483.09;5086286;28;20166;-63
2022/08/13 02:45:55;;;;;;;2.75;1.20;;;;;;;19.39;nan;100487.22;5095415;28;20325;-63
2022/08/13 02:48:23;;;;;;;1.63;1.13;;;;;;;19.37;nan;100483.91;5083668;28;20032;-63
2022/08/13 02:50:50;;;;;;;1.45;1.00;;;;;;;19.33;nan;100477.31;5078664;28;20124;-63
2022/08/13 02:53:20;;;;;;;1.83;1.20;;;;;;;19.33;nan;100482.69;5083287;28;20074;-63
2022/08/13 02:55:49;;;;;;;2.25;1.10;;;;;;;19.34;nan;100487.84;5080778;28;20040;-63
2022/08/13 02:58:15;;;;;;;2.83;1.20;;;;;;;19.29;nan;100488.47;5078513;28;20040;-63
2022/08/13 03:00:47;;;;;;;2.22;1.17;;;;;;;19.25;nan;100491.78;5079553;28;20509;-63
2022/08/13 03:03:13;;;;;;;1.55;1.02;;;;;;;19.23;nan;100499.22;5080743;28;20031;-63
2022/08/13 03:05:38;;;;;;;1.40;1.00;;;;;;;19.21;nan;100494.06;5087969;28;20034;-63
2022/08/13 03:08:04;;;;;;;2.17;1.17;;;;;;;19.23;nan;100499.22;5085127;28;20466;-63
2022/08/13 03:10:29;;;;;;;4.65;1.23;;;;;;;19.25;nan;100499.81;5080772;28;20534;-63
2022/08/13 03:13:18;;;;;;;3.17;1.10;;;;;;;19.23;nan;100497.34;5080266;28;20140;-63
2022/08/13 03:15:46;;;;;;;3.08;1.30;;;;;;;19.20;nan;100496.94;5083521;28;20050;-63
2022/08/13 03:18:11;;;;;;;1.85;1.05;;;;;;;19.22;nan;100489.53;5082063;28;20487;-63
2022/08/13 03:20:37;;;;;;;2.13;1.23;;;;;;;19.26;nan;100502.31;5079114;28;20119;-63
2022/08/13 03:23:03;;;;;;;1.63;1.17;;;;;;;19.38;nan;100498.97;5082790;28;20417;-63
2022/08/13 03:25:29;;;;;;;2.30;1.25;;;;;;;19.36;nan;100495.69;5078739;28;20158;-63
2022/08/13 03:27:55;;;;;;;2.92;1.27;;;;;;;19.34;nan;100497.75;5081017;28;20742;-63
2022/08/13 03:30:22;;;;;;;1.80;1.10;;;;;;;19.33;nan;100504.13;5080084;28;20356;-63
2022/08/13 03:32:49;;;;;;;1.85;1.20;;;;;;;19.28;nan;100497.56;5080122;28;20036;-63
2022/08/13 03:35:18;;;;;;;1.60;1.25;;;;;;;19.33;nan;100496.09;5082550;28;20055;-63
2022/08/13 03:37:47;;;;;;;2.65;1.00;;;;;;;19.34;nan;100498.56;5085597;28;20046;-63
2022/08/13 03:40:14;;;;;;;3.38;1.15;;;;;;;19.39;nan;100497.94;5079784;28;20036;-63
2022/08/13 03:42:40;;;;;;;1.90;1.23;;;;;;;19.33;nan;100501.44;5079602;28;20032;-63
2022/08/13 03:45:07;;;;;;;2.55;1.23;;;;;;;19.25;nan;100497.97;5082700;28;20081;-63
2022/08/13 03:47:33;;;;;;;1.75;1.20;;;;;;;19.24;nan;100509.72;5082310;28;20041;-63
2022/08/13 03:50:00;;;;;;;1.55;1.20;;;;;;;19.24;nan;100509.72;5087269;28;20089;-63
2022/08/13 03:52:26;;;;;;;1.17;0.90;;;;;;;19.16;nan;100499.22;5079942;28;20516;-63
2022/08/13 03:54:52;;;;;;;2.30;1.38;;;;;;;19.08;nan;100497.59;5080349;28;20033;-63
2022/08/13 03:57:19;;;;;;;1.40;0.95;;;;;;;19.01;nan;100496.75;5081987;28;20085;-63
2022/08/13 03:59:48;;;;;;;1.30;0.95;;;;;;;18.98;nan;100493.69;5080451;28;20396;-63
2022/08/13 04:02:15;;;;;;;1.13;0.80;;;;;;;18.91;nan;100493.69;5078802;28;20060;-63
2022/08/13 04:04:42;;;;;;;1.42;0.98;;;;;;;18.79;nan;100487.31;5092303;28;20119;-63
2022/08/13 04:07:08;;;;;;;1.30;0.98;;;;;;;18.66;nan;100488.94;5082345;28;20029;-63
2022/08/13 04:09:33;;;;;;;1.73;0.88;;;;;;;18.57;nan;100497.38;5087546;28;20811;-63
2022/08/13 04:11:58;;;;;;;1.13;0.90;;;;;;;18.42;nan;100490.38;5083563;28;20077;-63
2022/08/13 04:14:24;;;;;;;1.37;1.00;;;;;;;18.37;nan;100489.31;5079199;28;20279;-63
2022/08/13 04:16:50;;;;;;;1.25;1.05;;;;;;;18.33;nan;100490.72;5080041;28;20279;-63
2022/08/13 04:19:15;;;;;;;1.45;1.00;;;;;;;18.25;nan;100494.44;5082409;28;20431;-63
2022/08/13 04:21:41;;;;;;;1.65;1.10;;;;;;;18.21;nan;100493.19;5082396;28;20036;-63
2022/08/13 04:24:06;;;;;;;1.88;1.10;;;;;;;18.17;nan;100500.00;5081751;28;20040;-63
2022/08/13 04:26:32;;;;;;;2.92;1.20;;;;;;;18.14;nan;100495.88;5081047;28;20040;-63
2022/08/13 04:29:04;;;;;;;1.50;1.27;;;;;;;18.15;nan;100499.38;5084690;28;20032;-63
2022/08/13 04:31:30;;;;;;;1.48;1.10;;;;;;;18.08;nan;100498.53;5081676;28;20047;-63
2022/08/13 04:33:55;;;;;;;1.42;1.00;;;;;;;18.02;nan;100500.16;5083980;28;20031;-63
2022/08/13 04:36:21;;;;;;;3.47;1.40;;;;;;;17.97;nan;100500.75;5065259;28;20493;-63
2022/08/13 04:38:46;;;;;;;2.08;1.30;;;;;;;17.95;nan;100497.47;5083036;28;20028;-63
2022/08/13 04:41:11;;;;;;;1.67;1.30;;;;;;;17.97;nan;100494.56;5084648;28;20232;-63
2022/08/13 04:43:37;;;;;;;1.95;1.20;;;;;;;17.98;nan;100490.88;5080779;28;20282;-63
2022/08/13 04:46:02;;;;;;;2.58;1.17;;;;;;;18.06;nan;100484.50;5079924;28;20112;-67
2022/08/13 04:48:31;;;;;;;1.65;1.27;;;;;;;18.08;nan;100488.63;5082318;28;20044;-63
2022/08/13 04:50:57;;;;;;;2.72;1.20;;;;;;;18.06;nan;100490.69;5082479;28;20067;-63
2022/08/13 04:53:41;;;;;;;2.83;1.30;;;;;;;18.08;nan;100499.34;5079634;28;20064;-63
2022/08/13 04:56:06;;;;;;;1.95;1.23;;;;;;;18.12;nan;100494.44;5082952;28;20554;-64
2022/08/13 04:58:34;;;;;;;1.55;1.20;;;;;;;18.16;nan;100501.00;5078503;28;20424;-63
2022/08/13 05:01:01;;;;;;;2.25;1.35;;;;;;;18.18;nan;100509.66;5081757;28;20032;-63
2022/08/13 05:03:27;;;;;;;2.30;1.25;;;;;;;18.29;nan;100500.22;5082973;28;20092;-63
2022/08/13 05:05:52;;;;;;;2.95;1.20;;;;;;;18.41;nan;100507.44;5060253;28;20052;-63
2022/08/13 05:08:18;;;;;;;2.13;1.27;;;;;;;18.53;nan;100507.66;5081488;28;20028;-63
2022/08/13 05:10:46;;;;;;;1.52;1.15;;;;;;;18.61;nan;100507.44;5082161;28;20071;-63
2022/08/13 05:13:38;;;;;;;1.95;1.20;;;;;;;18.73;nan;100502.31;5085591;28;20040;-63
2022/08/13 05:16:06;;;;;;;1.90;1.20;;;;;;;18.80;nan;100513.06;5081292;28;20133;-63
2022/08/13 05:18:42;;;;;;;1.50;1.02;;;;;;;18.92;nan;100513.25;5082307;28;20048;-63
2022/08/13 05:21:11;;;;;;;1.50;1.02;;;;;;;19.16;nan;100515.28;5087321;28;20509;-63
2022/08/13 05:23:39;;;;;;;1.60;1.10;;;;;;;19.46;nan;100518.34;5086100;28;20054;-63
2022/08/13 05:26:05;;;;;;;3.47;1.10;;;;;;;19.81;nan;100514.56;5083925;28;20028;-63
2022/08/13 05:28:31;;;;;;;2.00;1.30;;;;;;;20.11;nan;100521.00;5066940;28;20084;-63
2022/08/13 05:30:57;;;;;;;1.70;1.10;;;;;;;20.40;nan;100517.94;5083057;28;20067;-63
2022/08/13 05:33:25;;;;;;;1.02;0.90;;;;;;;20.69;nan;100519.19;5083951;28;20824;-63
2022/08/13 05:35:53;;;;;;;1.80;1.27;;;;;;;20.93;nan;100526.47;5087513;28;20040;-63
2022/08/13 05:38:22;;;;;;;1.77;1.15;;;;;;;21.26;nan;100519.13;5083135;28;20035;-63
2022/08/13 05:40:54;;;;;;;1.55;1.20;;;;;;;21.53;nan;100533.16;5080726;28;20039;-64
2022/08/13 05:43:23;;;;;;;1.67;1.25;;;;;;;21.77;nan;100526.03;5085818;28;20036;-64
2022/08/13 05:45:57;;;;;;;1.80;1.25;;;;;;;22.10;nan;100532.88;5087659;28;20053;-64
2022/08/13 05:48:22;;;;;;;1.40;1.10;;;;;;;22.34;nan;100523.06;5085804;28;20040;-64
2022/08/13 05:50:48;;;;;;;2.22;1.30;;;;;;;22.62;nan;100530.47;5083586;28;20036;-64
2022/08/13 05:53:13;;;;;;;1.55;1.30;;;;;;;22.82;nan;100528.28;5082881;28;20032;-64
2022/08/13 05:55:40;;;;;;;1.67;1.08;;;;;;;23.02;nan;100524.47;5083313;28;20062;-64
2022/08/13 05:58:08;;;;;;;1.73;1.00;;;;;;;23.27;nan;100537.72;5085002;28;20040;-64
2022/08/13 06:03:25;;;;;;;1.90;1.23;;;;;;;23.55;nan;100528.91;5081288;28;20038;-64
2022/08/13 06:06:11;;;;;;;1.30;1.00;;;;;;;23.79;nan;100524.28;5084982;28;20043;-64
2022/08/13 06:08:42;;;;;;;1.73;1.10;;;;;;;24.06;nan;100526.44;5084224;28;20040;-64
2022/08/13 06:11:11;;;;;;;2.42;1.10;;;;;;;24.29;nan;100523.63;5085498;28;20033;-64
2022/08/13 06:13:40;;;;;;;2.05;1.02;;;;;;;24.59;nan;100520.66;5083542;28;20048;-64
2022/08/13 06:16:08;;;;;;;1.10;1.00;;;;;;;24.90;nan;100523.03;5084143;28;20055;-65
2022/08/13 06:18:35;;;;;;;1.90;1.10;;;;;;;25.17;nan;100526.75;5083436;28;20062;-64
2022/08/13 06:21:04;;;;;;;1.58;1.10;;;;;;;25.42;nan;100528.16;5082363;28;20044;-64
2022/08/13 06:23:32;;;;;;;2.38;1.10;;;;;;;25.58;nan;100529.19;5084618;28;20039;-64
2022/08/13 06:25:59;;;;;;;1.52;1.00;;;;;;;25.72;nan;100514.19;5081022;28;20028;-64
2022/08/13 06:28:27;;;;;;;1.88;0.90;;;;;;;26.01;nan;100512.09;5080625;28;20115;-64
2022/08/13 06:30:54;;;;;;;2.50;0.85;;;;;;;26.24;nan;100511.00;5089367;28;20039;-64
2022/08/13 06:33:22;;;;;;;1.30;0.85;;;;;;;26.56;nan;100509.41;5085208;28;20126;-64
2022/08/13 06:36:00;;;;;;;1.38;0.93;;;;;;;26.87;nan;100516.69;5080137;28;20514;-64
2022/08/13 06:38:29;;;;;;;1.63;1.10;;;;;;;27.09;nan;100515.75;5079542;28;20047;-64
2022/08/13 06:40:59;;;;;;;1.45;1.00;;;;;;;27.36;nan;100523.78;5081289;28;20033;-64
2022/08/13 06:43:26;;;;;;;1.35;0.80;;;;;;;27.67;nan;100511.19;5084093;28;20389;-64
2022/08/13 06:45:52;;;;;;;1.33;0.80;;;;;;;27.81;nan;100518.84;5089977;28;20546;-64
2022/08/13 06:48:17;;;;;;;2.20;1.00;;;;;;;28.11;nan;100516.22;5088479;28;20069;-64
2022/08/13 06:50:43;;;;;;;1.30;0.82;;;;;;;28.35;nan;100521.16;5086965;28;20160;-64
2022/08/13 06:53:10;;;;;;;2.00;0.90;;;;;;;28.46;nan;100522.84;5086115;28;20397;-65
2022/08/13 06:55:36;;;;;;;1.30;0.82;;;;;;;28.39;nan;100527.69;5080675;28;20107;-64
2022/08/13 06:58:04;;;;;;;2.60;0.90;;;;;;;28.38;nan;100534.22;5083495;28;20506;-64
2022/08/13 07:00:30;;;;;;;1.20;0.90;;;;;;;28.50;nan;100537.50;5081418;28;20313;-64
2022/08/13 07:02:58;;;;;;;3.53;1.00;;;;;;;28.47;nan;100529.09;5084542;28;20067;-64
2022/08/13 07:05:35;;;;;;;1.63;0.88;;;;;;;28.30;nan;100529.31;5085034;28;20142;-65
2022/08/13 07:08:04;;;;;;;1.75;1.00;;;;;;;28.35;nan;100526.59;5076607;28;20046;-64
2022/08/13 07:10:30;;;;;;;2.55;0.90;;;;;;;28.43;nan;100534.22;5080086;28;20172;-64
2022/08/13 07:12:56;;;;;;;2.10;1.10;;;;;;;28.52;nan;100534.53;5081739;28;20345;-64
2022/08/13 07:15:23;;;;;;;1.10;0.88;;;;;;;28.69;nan;100536.97;5084776;28;20036;-64
2022/08/13 07:17:50;;;;;;;1.75;1.00;;;;;;;28.71;nan;100535.63;5091490;28;20036;-64
2022/08/13 07:20:16;;;;;;;2.25;1.00;;;;;;;28.82;nan;100531.00;5088207;28;20032;-64
2022/08/13 07:22:41;;;;;;;1.63;0.90;;;;;;;28.99;nan;100528.78;5086172;28;20040;-64
2022/08/13 07:25:10;;;;;;;1.60;1.02;;;;;;;29.27;nan;100533.94;5087254;28;20028;-64
2022/08/13 07:27:38;;;;;;;2.85;1.00;;;;;;;29.41;nan;100530.38;5086108;28;20071;-64
2022/08/13 07:30:04;;;;;;;1.58;0.93;;;;;;;29.67;nan;100524.03;5087380;28;20043;-65
2022/08/13 07:32:30;;;;;;;2.65;0.90;;;;;;;29.95;nan;100526.06;5061151;28;20034;-64
2022/08/13 07:34:58;;;;;;;2.47;1.00;;;;;;;30.17;nan;100525.66;5088151;28;20028;-64
2022/08/13 07:37:24;;;;;;;1.52;0.90;;;;;;;30.03;nan;100521.91;5065410;28;20032;-64
2022/08/13 07:39:50;;;;;;;2.50;0.95;;;;;;;30.22;nan;100527.53;5087819;28;20047;-65
2022/08/13 07:42:16;;;;;;;1.60;1.00;;;;;;;30.30;nan;100526.97;5083958;28;20223;-64
2022/08/13 07:44:42;;;;;;;1.77;1.00;;;;;;;30.42;nan;100524.69;5088856;28;20036;-64
2022/08/13 07:47:12;;;;;;;1.50;0.77;;;;;;;30.71;nan;100520.38;5087377;28;20116;-64
2022/08/13 07:49:38;;;;;;;2.45;0.90;;;;;;;31.04;nan;100518.72;5089385;28;20549;-64
2022/08/13 07:52:05;;;;;;;2.15;0.90;;;;;;;31.07;nan;100527.13;5084146;28;20378;-64
2022/08/13 07:54:51;;;;;;;2.45;1.10;;;;;;;31.17;nan;100528.94;5080006;28;20066;-64
2022/08/13 07:57:19;;;;;;;1.70;0.70;;;;;;;31.36;nan;100530.94;5080941;28;20532;-64
2022/08/13 07:59:45;;;;;;;3.58;0.80;;;;;;;31.33;nan;100521.41;5075470;28;20220;-64
2022/08/13 08:02:12;;;;;;;5.28;1.10;;;;;;;31.68;nan;100527.56;5084192;28;20123;-65
2022/08/13 08:04:37;;;;;;;1.88;0.98;;;;;;;31.80;nan;100525.22;5076978;28;20066;-65
2022/08/13 08:07:04;;;;;;;2.47;0.93;;;;;;;31.86;nan;100524.03;5069420;28;20055;-65
2022/08/13 08:09:30;;;;;;;2.90;0.80;;;;;;;32.14;nan;100524.22;5085815;28;20039;-65
2022/08/13 08:14:46;;;;;;;1.60;0.95;;;;;;;32.26;nan;100519.09;5087483;28;20051;-64
2022/08/13 08:17:11;;;;;;;3.20;1.00;;;;;;;32.42;nan;100525.16;5080845;28;20044;-65
2022/08/13 08:19:41;;;;;;;1.00;0.80;;;;;;;32.63;nan;100522.09;5086298;28;20120;-65
2022/08/13 08:22:10;;;;;;;1.65;0.93;;;;;;;32.79;nan;100520.72;5086658;28;20081;-65
2022/08/13 08:24:37;;;;;;;3.63;1.00;;;;;;;32.94;nan;100516.88;5083055;28;20366;-65
2022/08/13 08:27:05;;;;;;;3.42;0.82;;;;;;;33.26;nan;100520.72;5069636;28;20040;-64
2022/08/13 08:29:31;;;;;;;2.70;0.95;;;;;;;33.78;nan;100516.63;5086518;28;20507;-62
2022/08/13 08:31:59;;;;;;;1.45;0.73;;;;;;;34.45;nan;100520.59;5084759;28;20055;-65
2022/08/13 08:34:25;;;;;;;1.65;1.00;;;;;;;34.74;nan;100513.88;5084505;28;20032;-65
2022/08/13 08:36:55;;;;;;;2.13;1.00;;;;;;;34.76;nan;100515.16;5091326;28;20032;-62
2022/08/13 08:44:57;;;;;;;;;;;;;;;36.01;nan;100506.66;5088907;28;20178;-62
2022/08/13 08:47:28;;;;;;;1.17;0.90;;;;;;;35.70;nan;100501.31;5077557;28;20383;-62
2022/08/13 08:49:56;;;;;;;1.55;0.70;;;;;;;35.59;nan;100509.03;5079562;28;20438;-65
2022/08/13 08:53:19;;;;;;;;;;;;;;;35.38;nan;100508.81;5077238;28;20032;-63
2022/08/13 08:55:09;;;;;;;2.65;1.10;;;;;;;35.15;nan;100513.59;5081600;28;20404;-62
2022/08/13 08:57:36;;;;;;;1.85;0.80;;;;;;;35.41;nan;100513.69;5077511;28;20419;-63
2022/08/13 09:00:02;;;;;;;0.75;0.70;;;;;;;35.70;nan;100504.84;5073820;28;20513;-63
2022/08/13 09:02:28;;;;;;;1.20;0.80;;;;;;;35.88;nan;100499.38;5079552;28;20032;-63
2022/08/13 09:04:55;;;;;;;2.03;1.00;;;;;;;36.20;nan;100506.38;5082417;28;20111;-63
2022/08/13 09:07:23;;;;;;;1.42;0.90;;;;;;;36.32;nan;100506.50;5080655;28;20032;-64
2022/08/13 09:09:58;;;;;;;3.95;1.00;;;;;;;37.08;nan;100504.25;5083226;28;20028;-63
2022/08/13 09:12:28;;;;;;;2.80;1.00;;;;;;;37.33;nan;100495.03;5080447;28;20044;-63
2022/08/13 09:14:56;;;;;;;2.80;0.90;;;;;;;37.70;nan;100500.03;5076610;28;20500;-63
2022/08/13 09:17:21;;;;;;;3.25;1.10;;;;;;;37.64;nan;100495.84;5072170;28;20059;-63
2022/08/13 09:19:47;;;;;;;1.75;0.90;;;;;;;37.97;nan;100498.66;5056966;28;20036;-63
2022/08/13 09:22:17;;;;;;;1.60;0.80;;;;;;;38.58;nan;100496.19;5073583;28;20052;-64
2022/08/13 09:24:46;;;;;;;1.48;0.73;;;;;;;39.33;nan;100488.75;5082879;28;20523;-63
2022/08/13 09:27:15;;;;;;;1.27;0.90;;;;;;;39.48;nan;100496.38;5073891;28;20052;-64
2022/08/13 09:29:42;;;;;;;2.63;1.00;;;;;;;39.31;nan;100491.88;5076968;28;20147;-63
2022/08/13 09:32:09;;;;;;;1.67;0.80;;;;;;;38.94;nan;100491.09;5093987;28;20332;-64
2022/08/13 09:34:37;;;;;;;3.42;1.00;;;;;;;38.91;nan;100481.53;5090089;28;20047;-63
2022/08/13 09:37:04;;;;;;;1.63;0.90;;;;;;;38.94;nan;100488.31;5090655;28;21368;-64
2022/08/13 09:39:36;;;;;;;1.80;0.90;;;;;;;39.46;nan;100485.66;5090496;28;20329;-63
2022/08/13 09:42:12;;;;;;;2.95;0.88;;;;;;;39.99;nan;100479.31;5088477;28;20086;-64
2022/08/13 09:44:42;;;;;;;1.27;0.90;;;;;;;40.00;nan;100480.91;5090383;28;20074;-63
2022/08/13 09:47:10;;;;;;;3.58;0.70;;;;;;;40.19;nan;100481.06;5082530;28;20581;-63
2022/08/13 09:49:37;;;;;;;1.70;0.90;;;;;;;40.48;nan;100470.78;5093953;28;20492;-63
2022/08/13 09:52:02;;;;;;;1.52;0.90;;;;;;;40.54;nan;100469.34;5090551;28;20471;-64
2022/08/13 09:54:28;;;;;;;1.58;0.80;;;;;;;40.49;nan;100473.19;5094280;28;20032;-63
2022/08/13 09:56:57;;;;;;;2.60;1.00;;;;;;;40.51;nan;100465.31;5085473;28;20104;-63
2022/08/13 09:59:22;;;;;;;1.48;0.85;;;;;;;39.72;nan;100471.41;5082319;28;20675;-63
2022/08/13 10:01:50;;;;;;;2.00;1.10;;;;;;;39.76;nan;100468.75;5079143;28;20127;-63
2022/08/13 10:04:18;;;;;;;1.25;0.73;;;;;;;39.80;nan;100461.38;5083098;28;20033;-64
2022/08/13 10:06:45;;;;;;;1.05;0.70;;;;;;;40.44;nan;100467.09;5082208;28;20047;-64
2022/08/13 10:09:11;;;;;;;1.30;0.80;;;;;;;38.83;nan;100465.81;5080359;28;20043;-64
2022/08/13 10:11:36;;;;;;;3.22;1.00;;;;;;;38.01;nan;100459.03;5084516;28;20036;-63
2022/08/13 10:14:02;;;;;;;1.57;0.87;;;;;;;38.82;nan;100450.38;5079366;28;20085;-64
2022/08/13 10:16:27;;;;;;;1.98;1.00;;;;;;;39.37;nan;100462.03;5086199;28;20659;-64
2022/08/13 10:18:52;;;;;;;3.90;1.03;;;;;;;37.24;nan;100452.91;5084179;28;20048;-64
2022/08/13 10:21:18;;;;;;;1.02;0.80;;;;;;;35.47;nan;100454.66;5082694;28;20290;-63
2022/08/13 10:23:43;;;;;;;1.05;0.90;;;;;;;36.82;nan;100457.47;5079654;28;20210;-64
2022/08/13 10:26:09;;;;;;;1.75;1.13;;;;;;;37.74;nan;100449.34;5066729;28;20543;-64
2022/08/13 10:28:35;;;;;;;1.80;0.80;;;;;;;36.36;nan;100441.38;5084753;28;20451;-64
2022/08/13 10:31:09;;;;;;;1.85;1.00;;;;;;;34.94;nan;100446.56;5085360;28;20312;-64
2022/08/13 10:33:35;;;;;;;2.65;1.17;;;;;;;34.13;nan;100450.28;5084782;28;20063;-63
2022/08/13 10:36:00;;;;;;;1.10;0.90;;;;;;;35.00;nan;100437.84;5083767;28;20036;-64
2022/08/13 10:38:29;;;;;;;1.48;1.00;;;;;;;37.34;nan;100424.94;5080093;28;20033;-64
2022/08/13 10:40:58;;;;;;;1.00;0.88;;;;;;;38.43;nan;100434.06;5093989;28;20492;-64
2022/08/13 10:43:26;;;;;;;1.75;1.00;;;;;;;38.43;nan;100430.50;5082216;28;20346;-63
2022/08/13 10:52:35;;;;;;;2.30;1.00;;;;;;;39.05;nan;100434.97;5076552;28;20721;-64
2022/08/13 10:55:00;;;;;;;1.20;1.00;;;;;;;39.95;nan;100423.81;5075815;28;20044;-64
2022/08/13 10:57:25;;;;;;;1.55;0.85;;;;;;;41.54;nan;100426.56;5083684;28;20458;-63
2022/08/13 10:59:51;;;;;;;1.03;0.70;;;;;;;41.90;nan;100425.31;5059058;28;20045;-64
2022/08/13 11:02:16;;;;;;;1.80;0.90;;;;;;;41.28;nan;100416.06;5079065;28;20336;-64
2022/08/13 11:04:41;;;;;;;1.93;1.00;;;;;;;41.81;nan;100424.72;5082355;28;20303;-64
2022/08/13 11:07:10;;;;;;;1.02;0.63;;;;;;;41.70;nan;100418.97;5081593;28;20659;-64
2022/08/13 11:09:37;;;;;;;1.08;0.90;;;;;;;42.66;nan;100418.38;5074925;28;20046;-64
2022/08/13 11:12:03;;;;;;;1.40;0.82;;;;;;;43.44;nan;100419.53;5070875;28;20071;-64
2022/08/13 11:14:29;;;;;;;1.70;0.90;;;;;;;43.26;nan;100418.50;5087711;28;20056;-64
2022/08/13 11:16:58;;;;;;;1.10;0.88;;;;;;;42.68;nan;100416.03;5064103;28;20036;-64
2022/08/13 11:19:26;;;;;;;3.65;1.40;;;;;;;42.25;nan;100413.28;5082163;28;20043;-64
2022/08/13 11:21:52;;;;;;;1.27;0.80;;;;;;;42.63;nan;100406.00;5075300;28;20037;-64
2022/08/13 11:24:18;;;;;;;1.42;0.90;;;;;;;44.06;nan;100409.94;5077057;28;20040;-64
2022/08/13 11:26:45;;;;;;;1.65;1.00;;;;;;;43.90;nan;100413.72;5081191;28;20037;-64
2022/08/13 11:29:11;;;;;;;1.55;0.82;;;;;;;44.15;nan;100404.88;5077714;28;20494;-64
2022/08/13 11:31:37;;;;;;;1.00;0.77;;;;;;;44.69;nan;100405.31;5079851;28;20055;-63
2022/08/13 11:34:03;;;;;;;1.85;0.90;;;;;;;45.19;nan;100388.09;5087530;28;20051;-65
2022/08/13 11:36:28;;;;;;;1.40;0.88;;;;;;;45.92;nan;100393.56;5090338;28;20040;-64
2022/08/13 11:38:54;;;;;;;2.40;0.98;;;;;;;46.47;nan;100395.25;5086248;28;20135;-64
2022/08/13 11:41:20;;;;;;;2.97;0.82;;;;;;;46.81;nan;100412.41;5082432;28;20043;-64
2022/08/13 11:43:47;;;;;;;1.25;0.90;;;;;;;46.59;nan;100400.44;5060278;28;20068;-64
2022/08/13 11:46:12;;;;;;;1.45;0.90;;;;;;;47.59;nan;100402.97;5082191;28;20036;-64
2022/08/13 11:48:39;;;;;;;0.82;0.80;;;;;;;47.10;nan;100403.97;5082039;28;20042;-64
2022/08/13 11:51:04;;;;;;;1.40;0.70;;;;;;;46.33;nan;100398.81;5081775;28;20117;-64
2022/08/13 11:53:29;;;;;;;1.10;0.80;;;;;;;47.54;nan;100399.81;5078267;28;20513;-64
2022/08/13 11:55:56;;;;;;;1.27;0.80;;;;;;;48.14;nan;100404.25;5079892;28;20097;-64
2022/08/13 11:58:21;;;;;;;1.02;0.90;;;;;;;47.81;nan;100397.25;5083487;28;20044;-65
2022/08/13 12:00:46;;;;;;;0.90;0.70;;;;;;;45.24;nan;100396.91;5079621;28;20109;-65
2022/08/13 12:03:12;;;;;;;1.67;1.00;;;;;;;42.01;nan;100395.00;5078093;28;20032;-64
2022/08/13 12:05:37;;;;;;;1.30;0.90;;;;;;;39.61;nan;100380.91;5085640;28;20435;-64
2022/08/13 12:08:11;;;;;;;1.80;0.82;;;;;;;38.61;nan;100370.34;5093713;28;20343;-63
2022/08/13 12:10:36;;;;;;;2.28;0.90;;;;;;;38.77;nan;100373.22;5087780;28;20063;-64